Time;durP1;ratioP1;P1;durP2;ratioP2;P2;SDS_P1;SDS_P2;PMS_P1;PMS_P2;Temp;Humidity;BMP_temperature;BMP_pressure;BME280_temperature;BME280_humidity;BME280_pressure;Samples;Min_cycle;Max_cycle;Signal;HPM_P1;HPM_P2
2023/05/11 00:01:03;;;;;;;29.85;16.23;;;12.00;99.90;;;;;;5056981;28;20126;-86
2023/05/11 00:05:58;;;;;;;28.30;16.63;;;12.00;99.90;;;;;;5013410;28;20050;-85
2023/05/11 00:08:23;;;;;;;28.17;16.23;;;12.00;99.90;;;;;;4997875;28;20050;-85
2023/05/11 00:10:49;;;;;;;29.80;16.65;;;12.10;99.90;;;;;;4986687;28;20498;-86
2023/05/11 00:13:16;;;;;;;29.02;16.60;;;12.50;99.90;;;;;;4995350;28;20085;-86
2023/05/11 00:15:41;;;;;;;29.83;16.60;;;12.90;99.90;;;;;;4987127;28;20452;-85
2023/05/11 00:18:07;;;;;;;29.60;16.95;;;12.00;99.90;;;;;;5014306;28;20125;-85
2023/05/11 00:20:33;;;;;;;29.77;16.92;;;12.20;99.90;;;;;;5015081;28;20125;-86
2023/05/11 00:22:58;;;;;;;32.13;17.08;;;12.00;99.90;;;;;;5013936;28;20100;-85
2023/05/11 00:25:24;;;;;;;35.03;18.15;;;12.70;99.90;;;;;;4996275;28;20042;-85
2023/05/11 00:27:50;;;;;;;32.65;17.58;;;11.90;99.90;;;;;;4996532;28;20119;-85
2023/05/11 00:30:15;;;;;;;31.15;17.58;;;11.90;99.90;;;;;;4996895;28;20049;-85
2023/05/11 00:32:42;;;;;;;34.33;17.83;;;11.90;99.90;;;;;;4997003;28;20056;-85
2023/05/11 00:35:09;;;;;;;34.20;17.73;;;13.00;99.90;;;;;;4996288;28;20493;-85
2023/05/11 00:37:35;;;;;;;34.10;17.33;;;11.80;99.90;;;;;;5015344;28;20501;-86
2023/05/11 00:40:02;;;;;;;42.28;18.60;;;11.80;99.90;;;;;;4997191;28;20034;-85
2023/05/11 00:42:27;;;;;;;33.10;17.23;;;13.00;99.90;;;;;;5014156;28;20041;-86
2023/05/11 00:44:53;;;;;;;35.38;18.48;;;12.10;99.90;;;;;;4997449;28;20053;-85
2023/05/11 00:47:19;;;;;;;32.15;17.50;;;11.80;99.90;;;;;;4997326;28;20549;-86
2023/05/11 00:49:45;;;;;;;34.55;17.90;;;11.80;99.90;;;;;;5014152;28;20038;-86
2023/05/11 00:52:11;;;;;;;32.45;17.27;;;11.80;99.90;;;;;;4996516;28;20049;-86
2023/05/11 00:54:37;;;;;;;36.08;18.90;;;11.90;99.90;;;;;;5015001;28;20056;-86
2023/05/11 00:57:03;;;;;;;38.78;18.40;;;12.20;99.90;;;;;;5013728;28;20049;-85
2023/05/11 00:59:29;;;;;;;37.53;18.83;;;11.70;99.90;;;;;;4996554;28;20088;-86
2023/05/11 01:01:57;;;;;;;42.72;20.17;;;11.70;99.90;;;;;;4996655;28;20052;-85
2023/05/11 01:04:23;;;;;;;44.90;19.50;;;11.60;99.90;;;;;;4999198;28;20053;-86
2023/05/11 01:07:22;;;;;;;38.78;20.05;;;11.60;99.90;;;;;;5014234;28;20493;-86
2023/05/11 01:10:11;;;;;;;40.20;19.17;;;11.60;99.90;;;;;;5013133;28;20046;-85
2023/05/11 01:12:43;;;;;;;43.70;19.42;;;11.60;99.90;;;;;;5012928;28;20156;-86
2023/05/11 01:15:13;;;;;;;40.30;19.58;;;11.60;99.90;;;;;;5014163;28;20050;-85
2023/05/11 01:17:46;;;;;;;43.90;18.95;;;11.60;99.90;;;;;;5015166;28;20061;-85
2023/05/11 01:20:16;;;;;;;46.67;19.92;;;12.80;99.90;;;;;;5021137;28;20038;-85
2023/05/11 01:22:42;;;;;;;44.05;19.85;;;12.30;99.90;;;;;;5013480;28;20064;-85
2023/05/11 01:25:32;;;;;;;45.00;19.55;;;11.60;99.90;;;;;;5013197;28;20477;-85
2023/05/11 01:28:35;;;;;;;45.35;19.63;;;11.60;99.90;;;;;;5012768;28;20041;-85
2023/05/11 01:31:09;;;;;;;47.30;19.38;;;11.60;99.90;;;;;;5016008;28;20053;-84
2023/05/11 01:33:37;;;;;;;41.38;18.98;;;11.60;99.90;;;;;;5012704;28;20493;-85
2023/05/11 01:36:07;;;;;;;47.25;20.15;;;12.20;99.90;;;;;;5012370;28;20046;-85
2023/05/11 01:38:38;;;;;;;43.28;19.60;;;11.60;99.90;;;;;;5014312;28;20038;-85
2023/05/11 01:41:13;;;;;;;48.13;20.83;;;12.10;99.90;;;;;;5012370;28;20120;-85
2023/05/11 01:43:41;;;;;;;49.75;20.45;;;12.30;99.90;;;;;;5012778;28;20050;-85
2023/05/11 01:46:09;;;;;;;44.95;19.92;;;11.60;99.90;;;;;;5011174;28;20042;-86
2023/05/11 01:48:38;;;;;;;48.95;21.02;;;11.60;99.90;;;;;;5012290;28;20038;-85
2023/05/11 01:51:04;;;;;;;48.97;20.48;;;12.40;99.90;;;;;;5012235;28;20038;-85
2023/05/11 01:53:36;;;;;;;47.97;21.20;;;11.60;99.90;;;;;;5013892;28;20054;-85
2023/05/11 01:56:04;;;;;;;48.80;21.20;;;11.60;99.90;;;;;;5033657;28;20041;-84
2023/05/11 01:58:33;;;;;;;48.55;21.58;;;11.60;99.90;;;;;;5020238;28;20057;-85
2023/05/11 02:01:01;;;;;;;53.97;22.45;;;11.60;99.90;;;;;;5013603;28;20057;-86
2023/05/11 02:03:30;;;;;;;53.53;23.02;;;11.70;99.90;;;;;;5013510;28;20038;-87
2023/05/11 02:05:57;;;;;;;47.97;21.00;;;12.40;99.90;;;;;;5032206;28;20053;-86
2023/05/11 02:08:24;;;;;;;48.90;21.30;;;11.60;99.90;;;;;;5032365;28;20057;-86
2023/05/11 02:10:52;;;;;;;50.22;20.52;;;12.30;99.90;;;;;;5015607;28;20048;-86
2023/05/11 02:13:18;;;;;;;49.05;20.95;;;11.50;99.90;;;;;;5014480;28;20049;-87
2023/05/11 02:15:46;;;;;;;49.83;21.55;;;11.60;99.90;;;;;;5032776;28;20378;-86
2023/05/11 02:18:14;;;;;;;51.58;21.60;;;12.20;99.90;;;;;;5032919;28;20045;-83
2023/05/11 02:20:44;;;;;;;52.95;21.73;;;11.50;99.90;;;;;;5014672;28;20049;-85
2023/05/11 02:23:10;;;;;;;48.78;20.98;;;11.50;99.90;;;;;;5032105;28;20136;-85
2023/05/11 02:25:38;;;;;;;54.03;22.40;;;12.40;99.90;;;;;;5032951;28;20037;-85
2023/05/11 02:28:04;;;;;;;55.15;21.88;;;11.90;99.90;;;;;;5032218;28;20092;-85
2023/05/11 02:30:31;;;;;;;54.83;21.80;;;11.50;99.90;;;;;;5032273;28;20041;-85
2023/05/11 02:33:04;;;;;;;55.92;22.42;;;11.60;99.90;;;;;;5032749;28;20092;-85
2023/05/11 02:35:33;;;;;;;54.70;22.63;;;11.50;99.90;;;;;;5014143;28;20069;-85
2023/05/11 02:38:01;;;;;;;48.78;21.95;;;11.40;99.90;;;;;;5015000;28;20045;-85
2023/05/11 02:40:32;;;;;;;51.30;22.02;;;11.60;99.90;;;;;;5014779;28;20041;-84
2023/05/11 02:43:06;;;;;;;48.47;20.15;;;11.70;99.90;;;;;;5032149;28;20088;-84
2023/05/11 02:45:34;;;;;;;49.60;19.77;;;12.10;99.90;;;;;;5032327;28;20037;-85
2023/05/11 02:48:07;;;;;;;50.75;20.67;;;11.40;99.90;;;;;;5015046;28;20049;-85
2023/05/11 02:50:38;;;;;;;48.92;20.27;;;11.40;99.90;;;;;;5023199;28;20037;-85
2023/05/11 02:53:09;;;;;;;51.65;20.98;;;12.20;99.90;;;;;;4995703;28;20417;-85
2023/05/11 02:55:35;;;;;;;48.10;20.02;;;11.80;99.90;;;;;;4995025;28;20100;-85
2023/05/11 02:58:01;;;;;;;48.97;20.25;;;12.60;99.90;;;;;;4995207;28;20489;-85
2023/05/11 03:00:27;;;;;;;44.42;19.88;;;11.40;99.90;;;;;;4995752;28;20084;-84
2023/05/11 03:02:53;;;;;;;50.28;20.08;;;11.60;99.90;;;;;;5013094;28;20062;-85
2023/05/11 03:05:18;;;;;;;49.72;20.75;;;12.10;99.90;;;;;;5031963;28;20114;-85
2023/05/11 03:07:44;;;;;;;48.72;20.55;;;11.30;99.90;;;;;;5015244;28;20049;-85
2023/05/11 03:10:10;;;;;;;45.75;19.40;;;11.30;99.90;;;;;;5030977;28;20064;-85
2023/05/11 03:12:37;;;;;;;51.38;20.10;;;12.40;99.90;;;;;;5032447;28;20056;-85
2023/05/11 03:15:03;;;;;;;45.95;19.02;;;12.20;99.90;;;;;;5015033;28;20476;-85
2023/05/11 03:17:30;;;;;;;52.45;20.17;;;11.30;99.90;;;;;;5031342;28;20049;-85
2023/05/11 03:19:57;;;;;;;42.30;18.45;;;12.00;99.90;;;;;;5014899;28;20069;-85
2023/05/11 03:22:24;;;;;;;44.70;18.95;;;11.30;99.90;;;;;;5014431;28;20068;-85
2023/05/11 03:24:50;;;;;;;44.15;18.58;;;11.20;99.90;;;;;;5031847;28;20041;-85
2023/05/11 03:27:18;;;;;;;44.10;18.20;;;11.20;99.90;;;;;;5031946;28;20052;-85
2023/05/11 03:29:44;;;;;;;42.40;17.40;;;12.00;99.90;;;;;;5032277;28;20045;-85
2023/05/11 03:32:11;;;;;;;40.85;17.23;;;12.00;99.90;;;;;;5031173;28;20049;-85
2023/05/11 03:34:36;;;;;;;38.97;16.80;;;11.90;99.90;;;;;;5034799;28;20120;-85
2023/05/11 03:37:05;;;;;;;38.53;15.50;;;11.20;99.90;;;;;;5017603;28;20080;-85
2023/05/11 03:39:32;;;;;;;36.90;16.13;;;11.60;99.90;;;;;;5017323;28;20049;-85
2023/05/11 03:41:59;;;;;;;39.55;16.08;;;11.20;99.90;;;;;;5018074;28;20044;-85
2023/05/11 03:44:26;;;;;;;37.60;16.10;;;11.10;99.90;;;;;;5017756;28;20187;-85
2023/05/11 03:46:53;;;;;;;36.83;15.77;;;11.10;99.90;;;;;;5035035;28;20041;-85
2023/05/11 03:49:20;;;;;;;39.13;15.68;;;11.10;99.90;;;;;;5017673;28;20060;-85
2023/05/11 03:51:46;;;;;;;38.97;16.80;;;11.10;99.90;;;;;;5034347;28;20056;-85
2023/05/11 03:54:12;;;;;;;44.72;16.55;;;11.10;99.90;;;;;;5035483;28;20060;-85
2023/05/11 03:56:38;;;;;;;41.78;17.17;;;11.10;99.90;;;;;;5035688;28;20116;-85
2023/05/11 03:59:08;;;;;;;43.65;17.58;;;11.10;99.90;;;;;;5016961;28;20874;-85
2023/05/11 04:01:34;;;;;;;43.03;16.92;;;11.10;99.90;;;;;;5008915;28;20049;-85
2023/05/11 04:03:59;;;;;;;44.35;16.33;;;11.10;99.90;;;;;;5007337;28;20061;-85
2023/05/11 04:06:25;;;;;;;38.13;16.70;;;11.10;99.90;;;;;;5012485;28;20045;-85
2023/05/11 04:08:51;;;;;;;34.67;15.40;;;11.60;99.90;;;;;;5015684;28;20038;-86
2023/05/11 04:11:16;;;;;;;33.97;14.73;;;11.10;99.90;;;;;;5013831;28;20473;-85
2023/05/11 04:13:42;;;;;;;39.65;14.98;;;12.20;99.90;;;;;;5013461;28;20496;-85
2023/05/11 04:16:08;;;;;;;36.30;14.80;;;11.90;99.90;;;;;;5013724;28;20050;-85
2023/05/11 04:18:33;;;;;;;32.75;14.05;;;11.70;99.90;;;;;;4995596;28;20046;-86
2023/05/11 04:21:00;;;;;;;32.47;13.90;;;11.10;99.90;;;;;;5006381;28;20493;-85
2023/05/11 04:23:25;;;;;;;35.10;14.20;;;11.10;99.90;;;;;;5012981;28;20749;-85
2023/05/11 04:25:55;;;;;;;36.30;14.20;;;11.50;99.90;;;;;;5013712;28;20557;-85
2023/05/11 04:28:22;;;;;;;28.70;13.80;;;11.10;99.90;;;;;;5015187;28;20049;-85
2023/05/11 04:30:55;;;;;;;33.83;13.25;;;11.50;99.90;;;;;;5021163;28;20038;-85
2023/05/11 04:33:21;;;;;;;33.20;14.38;;;12.20;99.90;;;;;;5014695;28;20050;-85
2023/05/11 04:35:52;;;;;;;31.98;12.65;;;11.20;99.90;;;;;;5014235;28;20105;-85
2023/05/11 04:38:18;;;;;;;31.52;13.80;;;11.40;99.90;;;;;;4996930;28;20053;-85
2023/05/11 04:40:44;;;;;;;30.73;12.60;;;11.10;99.90;;;;;;4994399;28;20050;-85
2023/05/11 04:43:10;;;;;;;30.30;12.45;;;11.10;99.90;;;;;;5009979;28;20044;-85
2023/05/11 04:45:35;;;;;;;28.17;12.48;;;11.10;99.90;;;;;;5013061;28;20506;-85
2023/05/11 04:48:01;;;;;;;28.30;12.98;;;11.80;99.90;;;;;;5014089;28;20050;-85
2023/05/11 04:50:27;;;;;;;37.42;13.85;;;11.10;99.90;;;;;;5014917;28;20433;-85
2023/05/11 04:52:52;;;;;;;32.17;13.95;;;11.20;99.90;;;;;;5014255;28;20046;-85
2023/05/11 04:55:18;;;;;;;34.15;12.85;;;12.00;99.90;;;;;;5013147;28;20133;-84
2023/05/11 04:57:44;;;;;;;39.65;14.25;;;11.20;99.90;;;;;;5017112;28;20444;-86
2023/05/11 05:00:10;;;;;;;35.75;13.13;;;11.30;99.90;;;;;;5013929;28;20038;-84
2023/05/11 05:02:35;;;;;;;31.42;14.00;;;11.20;99.90;;;;;;5003003;28;20061;-85
2023/05/11 05:05:01;;;;;;;34.65;13.27;;;11.20;99.90;;;;;;5013368;28;20379;-85
2023/05/11 05:07:26;;;;;;;33.55;13.45;;;11.30;99.90;;;;;;5014142;28;20094;-85
2023/05/11 05:09:52;;;;;;;37.72;14.27;;;12.40;99.90;;;;;;5012665;28;20444;-85
2023/05/11 05:12:20;;;;;;;36.25;14.57;;;12.00;99.90;;;;;;5012829;28;20042;-85
2023/05/11 05:14:46;;;;;;;32.92;13.65;;;11.90;99.90;;;;;;5013312;28;20474;-85
2023/05/11 05:17:11;;;;;;;30.85;14.00;;;11.40;99.90;;;;;;5011679;28;20114;-85
2023/05/11 05:19:37;;;;;;;32.58;14.00;;;11.40;99.90;;;;;;5014659;28;20108;-87
2023/05/11 05:22:04;;;;;;;35.10;13.68;;;12.50;99.90;;;;;;5005723;28;20038;-85
2023/05/11 05:24:29;;;;;;;31.30;13.52;;;11.70;99.90;;;;;;4991911;28;20042;-84
2023/05/11 05:26:55;;;;;;;36.72;15.20;;;11.60;99.90;;;;;;4993718;28;20037;-85
2023/05/11 05:29:21;;;;;;;33.67;14.85;;;12.50;99.90;;;;;;5007689;28;20108;-85
2023/05/11 05:31:46;;;;;;;35.63;15.20;;;11.60;99.90;;;;;;5011340;28;20048;-86
2023/05/11 05:34:12;;;;;;;37.45;15.10;;;12.90;99.90;;;;;;5013664;28;20062;-87
2023/05/11 05:36:38;;;;;;;32.00;14.25;;;11.80;99.90;;;;;;5012382;28;20141;-85
2023/05/11 05:39:08;;;;;;;31.95;14.85;;;11.70;99.90;;;;;;5011804;28;20046;-84
2023/05/11 05:41:35;;;;;;;30.92;14.25;;;11.80;99.90;;;;;;5012547;28;20172;-84
2023/05/11 05:44:01;;;;;;;33.40;14.32;;;12.20;99.90;;;;;;5012658;28;20046;-84
2023/05/11 05:46:27;;;;;;;36.58;14.80;;;11.90;99.90;;;;;;5011396;28;20041;-84
2023/05/11 05:48:53;;;;;;;31.92;14.38;;;11.90;99.90;;;;;;5011724;28;20496;-84
2023/05/11 05:51:21;;;;;;;33.15;14.73;;;12.00;99.90;;;;;;5014125;28;20126;-84
2023/05/11 05:53:47;;;;;;;31.33;14.10;;;12.00;99.90;;;;;;5014243;28;20474;-84
2023/05/11 05:56:12;;;;;;;30.33;13.85;;;13.40;99.90;;;;;;5011432;28;20042;-84
2023/05/11 05:58:39;;;;;;;29.63;14.20;;;13.50;99.90;;;;;;5001943;28;20381;-84
2023/05/11 06:01:05;;;;;;;30.00;13.60;;;12.90;99.90;;;;;;5000428;28;20038;-85
2023/05/11 06:03:31;;;;;;;31.38;13.93;;;12.30;99.90;;;;;;4992049;28;20167;-87
2023/05/11 06:06:23;;;;;;;31.83;15.02;;;13.20;99.90;;;;;;4994336;28;20054;-83
2023/05/11 06:08:49;;;;;;;27.02;13.75;;;12.30;99.90;;;;;;5011921;28;20096;-83
2023/05/11 06:11:23;;;;;;;29.77;13.98;;;13.10;99.90;;;;;;5031506;28;20049;-84
2023/05/11 06:13:49;;;;;;;29.88;14.80;;;12.30;99.90;;;;;;5013921;28;20110;-83
2023/05/11 06:16:15;;;;;;;28.55;13.93;;;13.20;99.90;;;;;;5015034;28;20544;-83
2023/05/11 06:18:41;;;;;;;30.75;13.60;;;12.30;99.90;;;;;;5015028;28;20045;-83
2023/05/11 06:21:06;;;;;;;30.17;13.63;;;13.30;99.90;;;;;;5031763;28;20081;-85
2023/05/11 06:23:32;;;;;;;27.17;13.18;;;12.30;99.90;;;;;;5014161;28;20095;-84
2023/05/11 06:25:58;;;;;;;28.63;14.20;;;13.40;99.90;;;;;;5015257;28;20481;-83
2023/05/11 06:28:23;;;;;;;26.08;13.55;;;13.40;99.90;;;;;;5031471;28;20052;-83
2023/05/11 06:30:49;;;;;;;26.58;13.57;;;12.40;99.90;;;;;;5014535;28;20477;-83
2023/05/11 06:33:14;;;;;;;29.20;14.35;;;12.60;99.90;;;;;;5032059;28;20056;-84
2023/05/11 06:35:40;;;;;;;27.83;13.00;;;12.40;99.90;;;;;;5031909;28;20076;-83
2023/05/11 06:38:21;;;;;;;27.60;14.05;;;12.90;99.90;;;;;;5014690;28;20099;-84
2023/05/11 06:40:51;;;;;;;29.30;13.68;;;12.40;99.90;;;;;;5014808;28;20041;-83
2023/05/11 06:43:16;;;;;;;27.23;13.30;;;12.50;99.90;;;;;;5031708;28;20477;-84
2023/05/11 06:45:56;;;;;;;26.40;13.52;;;12.50;99.90;;;;;;5014673;28;20045;-85
2023/05/11 06:48:23;;;;;;;27.48;13.75;;;12.50;99.90;;;;;;5013579;28;20045;-85
2023/05/11 06:50:49;;;;;;;29.42;13.70;;;13.30;99.90;;;;;;5014925;28;20136;-85
2023/05/11 06:53:16;;;;;;;28.17;13.35;;;13.70;99.90;;;;;;5013985;28;20136;-85
2023/05/11 06:55:42;;;;;;;27.17;13.75;;;12.60;99.90;;;;;;5013991;28;20050;-85
2023/05/11 06:58:19;;;;;;;27.23;13.38;;;13.50;99.90;;;;;;4980599;28;20048;-85
2023/05/11 07:00:45;;;;;;;27.48;13.95;;;14.10;99.90;;;;;;5032041;28;20408;-85
2023/05/11 07:03:14;;;;;;;25.02;12.77;;;14.30;99.90;;;;;;5013243;28;20128;-89
2023/05/11 07:05:53;;;;;;;26.73;14.02;;;13.80;99.90;;;;;;5014862;28;20085;-92
2023/05/11 07:08:18;;;;;;;27.13;13.38;;;13.50;99.90;;;;;;5016701;28;20049;-84
2023/05/11 07:11:24;;;;;;;25.35;12.60;;;14.50;99.90;;;;;;5017763;28;20043;-84
2023/05/11 07:13:50;;;;;;;24.90;12.60;;;13.20;99.90;;;;;;5035861;28;20044;-84
2023/05/11 07:16:25;;;;;;;23.63;12.85;;;14.60;99.90;;;;;;5017302;28;20042;-83
2023/05/11 07:18:50;;;;;;;23.23;12.95;;;13.80;99.90;;;;;;5017702;28;20048;-83
2023/05/11 07:21:16;;;;;;;24.95;13.05;;;13.80;99.90;;;;;;5018075;28;20037;-84
2023/05/11 07:23:43;;;;;;;23.38;12.63;;;14.90;99.90;;;;;;5017541;28;20045;-83
2023/05/11 07:26:24;;;;;;;22.60;12.15;;;14.80;99.90;;;;;;5034644;28;20501;-83
2023/05/11 07:29:06;;;;;;;23.15;12.63;;;14.30;99.90;;;;;;5026229;22;20089;-83
2023/05/11 07:31:32;;;;;;;25.10;13.57;;;13.60;99.90;;;;;;4996856;28;20412;-83
2023/05/11 07:33:58;;;;;;;25.63;13.32;;;14.80;99.90;;;;;;4997632;28;20037;-84
2023/05/11 07:36:24;;;;;;;23.58;13.32;;;14.60;99.90;;;;;;4997698;28;20129;-83
2023/05/11 07:38:49;;;;;;;25.02;14.02;;;14.40;99.90;;;;;;5015208;28;20053;-83
2023/05/11 07:41:16;;;;;;;24.58;13.43;;;14.10;99.90;;;;;;4997590;28;20046;-83
2023/05/11 07:43:42;;;;;;;25.85;13.57;;;13.60;99.90;;;;;;4998066;28;20525;-83
2023/05/11 07:46:08;;;;;;;28.85;14.00;;;14.40;99.90;;;;;;4997541;28;20077;-83
2023/05/11 07:48:33;;;;;;;27.13;14.90;;;13.60;99.90;;;;;;5015873;28;20049;-82
2023/05/11 07:51:00;;;;;;;27.23;15.18;;;13.50;99.90;;;;;;4996981;28;20095;-83
2023/05/11 07:53:26;;;;;;;28.92;15.77;;;14.40;99.90;;;;;;5014803;28;20054;-83
2023/05/11 07:56:04;;;;;;;28.23;15.55;;;13.50;99.90;;;;;;5006999;28;20101;-83
2023/05/11 07:58:31;;;;;;;27.92;15.65;;;13.40;99.90;;;;;;5007346;28;20049;-83
2023/05/11 08:00:57;;;;;;;27.98;15.07;;;14.20;99.90;;;;;;5015794;28;20037;-82
2023/05/11 08:03:38;;;;;;;29.48;15.55;;;13.40;99.90;;;;;;5018946;23;20050;-83
2023/05/11 08:06:06;;;;;;;30.55;16.45;;;14.50;99.90;;;;;;5053639;28;20510;-82
2023/05/11 08:08:32;;;;;;;30.80;15.43;;;13.40;99.90;;;;;;5054526;28;20084;-82
2023/05/11 08:10:59;;;;;;;27.10;15.15;;;13.40;99.90;;;;;;5054625;28;20068;-82
2023/05/11 08:13:25;;;;;;;28.60;15.00;;;14.60;99.90;;;;;;5053236;28;20099;-82
2023/05/11 08:15:50;;;;;;;28.58;15.75;;;14.40;99.90;;;;;;5036615;28;20076;-82
2023/05/11 08:18:16;;;;;;;29.23;15.38;;;14.00;99.90;;;;;;5053884;28;20047;-83
2023/05/11 08:20:42;;;;;;;31.30;14.82;;;13.40;99.90;;;;;;5036025;28;20053;-82
2023/05/11 08:23:15;;;;;;;30.65;16.00;;;14.00;99.90;;;;;;5036505;28;20547;-83
2023/05/11 08:26:00;;;;;;;29.05;14.90;;;13.50;99.90;;;;;;5054577;28;20040;-83
2023/05/11 08:28:25;;;;;;;27.67;13.77;;;13.40;99.90;;;;;;5053728;28;20485;-82
2023/05/11 08:30:59;;;;;;;26.98;15.10;;;14.20;99.90;;;;;;5048533;28;20075;-83
2023/05/11 08:33:43;;;;;;;29.10;15.43;;;14.00;99.90;;;;;;5023136;28;20896;-83
2023/05/11 08:36:10;;;;;;;25.25;13.20;;;14.90;99.90;;;;;;5054206;28;20095;-83
2023/05/11 08:38:51;;;;;;;27.23;14.13;;;13.70;99.90;;;;;;5035229;28;20122;-82
2023/05/11 08:41:17;;;;;;;28.33;14.77;;;13.80;99.90;;;;;;5035905;28;20044;-83
2023/05/11 08:43:45;;;;;;;29.48;15.43;;;14.50;99.90;;;;;;5054387;28;20041;-83
2023/05/11 08:46:22;;;;;;;27.10;14.45;;;14.50;99.90;;;;;;5035885;28;20559;-83
2023/05/11 08:48:49;;;;;;;25.05;13.77;;;14.40;99.90;;;;;;5035942;28;20040;-83
2023/05/11 08:51:32;;;;;;;27.90;14.60;;;14.60;99.90;;;;;;5039991;28;20048;-84
2023/05/11 08:53:58;;;;;;;28.27;14.48;;;13.40;99.90;;;;;;5024609;28;20045;-84
2023/05/11 08:56:44;;;;;;;29.77;15.10;;;14.40;99.90;;;;;;5014741;28;20127;-84
2023/05/11 08:59:12;;;;;;;27.15;15.18;;;13.40;99.90;;;;;;5024146;28;20048;-84
2023/05/11 09:01:46;;;;;;;30.75;16.20;;;14.60;99.90;;;;;;5018430;28;20052;-84
2023/05/11 09:04:13;;;;;;;29.08;15.10;;;12.80;99.90;;;;;;5028103;23;20068;-84
2023/05/11 09:06:40;;;;;;;30.15;16.23;;;13.80;99.90;;;;;;5028385;28;20129;-83
2023/05/11 09:09:05;;;;;;;30.23;15.45;;;13.40;99.90;;;;;;5023000;28;20042;-82
2023/05/11 09:11:31;;;;;;;28.50;14.52;;;14.20;99.90;;;;;;5020440;28;20029;-84
2023/05/11 09:13:57;;;;;;;31.20;15.40;;;13.40;99.90;;;;;;5033622;28;20057;-84
2023/05/11 09:16:23;;;;;;;31.02;15.80;;;13.40;99.90;;;;;;5014834;28;20037;-84
2023/05/11 09:18:50;;;;;;;30.80;16.85;;;13.30;99.90;;;;;;5039915;28;20395;-84
2023/05/11 09:21:16;;;;;;;33.33;15.65;;;13.40;99.90;;;;;;5035591;28;20056;-85
2023/05/11 09:23:42;;;;;;;32.00;16.48;;;14.20;99.90;;;;;;5053027;28;20037;-86
2023/05/11 09:26:20;;;;;;;31.70;15.73;;;14.00;99.90;;;;;;5053717;28;20037;-85
2023/05/11 09:28:57;;;;;;;29.83;14.85;;;14.30;99.90;;;;;;5044496;28;20064;-85
2023/05/11 09:31:47;;;;;;;32.47;16.17;;;13.80;99.90;;;;;;5213357;22;20056;-84
2023/05/11 09:34:35;;;;;;;30.35;13.88;;;13.30;99.90;;;;;;5038520;28;20049;-84
2023/05/11 09:37:01;;;;;;;20.92;9.85;;;13.80;99.90;;;;;;5021730;28;20099;-85
2023/05/11 09:39:34;;;;;;;20.38;9.63;;;13.20;99.90;;;;;;5021382;28;20053;-84
2023/05/11 09:42:16;;;;;;;17.17;9.02;;;13.10;99.90;;;;;;5041339;28;20405;-84
2023/05/11 09:44:43;;;;;;;18.30;9.18;;;13.10;99.90;;;;;;5022617;28;20037;-84
2023/05/11 09:47:17;;;;;;;18.50;8.75;;;13.00;99.90;;;;;;5024019;28;20041;-85
2023/05/11 09:49:43;;;;;;;;;;;13.50;99.90;;;;;;5043193;28;20037;-85
2023/05/11 09:52:16;;;;;;;20.27;8.77;;;13.00;99.90;;;;;;5042142;28;19920;-85
2023/05/11 09:54:43;;;;;;;20.20;9.48;;;13.00;99.90;;;;;;5024362;28;20436;-85
2023/05/11 09:57:28;;;;;;;20.67;9.13;;;13.10;99.90;;;;;;5023439;28;20103;-85
2023/05/11 09:59:59;;;;;;;18.10;8.65;;;14.30;99.90;;;;;;5041614;28;20037;-85
2023/05/11 10:02:33;;;;;;;20.25;9.18;;;14.40;99.90;;;;;;5024086;28;20041;-85
2023/05/11 10:05:00;;;;;;;20.08;8.73;;;13.50;99.90;;;;;;5022007;28;20095;-85
2023/05/11 10:07:29;;;;;;;17.13;8.45;;;14.60;99.90;;;;;;5037658;28;20034;-86
2023/05/11 10:10:14;;;;;;;19.73;9.10;;;13.70;99.90;;;;;;5012112;28;20057;-84
2023/05/11 10:12:39;;;;;;;16.83;7.65;;;14.50;99.90;;;;;;5023751;28;20033;-85
2023/05/11 10:15:09;;;;;;;17.27;7.82;;;15.00;99.90;;;;;;5024759;28;20641;-85
2023/05/11 10:17:36;;;;;;;18.38;8.15;;;13.90;99.90;;;;;;5021097;28;20029;-85
2023/05/11 10:20:03;;;;;;;18.13;8.35;;;14.00;99.90;;;;;;5041207;28;20068;-85
2023/05/11 10:22:30;;;;;;;20.20;8.23;;;14.10;99.90;;;;;;5042096;28;20037;-84
2023/05/11 10:24:57;;;;;;;17.17;8.07;;;14.60;99.90;;;;;;5025360;28;20418;-84
2023/05/11 10:27:24;;;;;;;16.48;7.85;;;14.20;99.90;;;;;;5021291;28;20076;-84
2023/05/11 10:29:50;;;;;;;15.57;7.35;;;15.20;99.90;;;;;;5028662;28;20047;-83
2023/05/11 10:32:17;;;;;;;16.00;7.78;;;14.80;99.90;;;;;;5025228;28;20061;-88
2023/05/11 10:34:45;;;;;;;15.48;7.63;;;15.10;99.90;;;;;;4994095;28;20069;-85
2023/05/11 10:37:11;;;;;;;15.40;7.03;;;14.30;99.90;;;;;;5013633;28;20497;-85
2023/05/11 10:39:39;;;;;;;14.57;6.75;;;15.10;99.90;;;;;;5013281;28;20046;-85
2023/05/11 10:42:41;;;;;;;17.23;7.45;;;14.20;99.90;;;;;;5012207;28;20046;-85
2023/05/11 10:45:12;;;;;;;17.17;8.48;;;14.30;99.90;;;;;;5015809;28;20045;-85
2023/05/11 10:48:10;;;;;;;17.55;8.40;;;14.40;99.90;;;;;;4998104;28;20046;-84
2023/05/11 10:51:14;;;;;;;18.70;8.85;;;14.30;99.90;;;;;;4999511;28;20054;-85
2023/05/11 10:54:27;;;;;;;19.63;9.45;;;14.40;99.90;;;;;;5000900;28;20132;-85
2023/05/11 10:57:07;;;;;;;20.42;10.00;;;14.50;99.90;;;;;;4930302;28;20063;-84
2023/05/11 10:59:50;;;;;;;18.15;9.48;;;14.60;99.90;;;;;;5011775;28;20500;-82
2023/05/11 11:02:17;;;;;;;18.95;9.52;;;14.70;99.90;;;;;;5052285;28;20031;-82
2023/05/11 11:04:48;;;;;;;22.00;9.80;;;14.70;99.90;;;;;;5021655;28;20132;-82
2023/05/11 11:07:18;;;;;;;17.73;9.38;;;14.80;99.90;;;;;;5031105;28;20049;-82
2023/05/11 11:10:04;;;;;;;21.10;10.40;;;15.20;99.90;;;;;;5033710;28;20037;-84
2023/05/11 11:12:33;;;;;;;20.05;10.68;;;14.90;99.90;;;;;;5028411;28;20049;-83
2023/05/11 11:15:00;;;;;;;22.55;12.02;;;15.40;99.90;;;;;;5016945;28;20045;-84
2023/05/11 11:17:30;;;;;;;24.83;12.70;;;14.90;99.90;;;;;;5049406;23;20055;-85
2023/05/11 11:20:00;;;;;;;25.55;13.82;;;15.00;99.90;;;;;;4988554;28;20053;-84
2023/05/11 11:22:46;;;;;;;20.88;12.18;;;15.00;99.90;;;;;;5072271;22;20057;-85
2023/05/11 11:25:13;;;;;;;25.00;13.00;;;15.30;99.90;;;;;;5039134;28;20060;-85
2023/05/11 11:27:39;;;;;;;23.17;12.55;;;15.40;99.90;;;;;;5017283;28;20069;-84
2023/05/11 11:30:20;;;;;;;24.08;13.55;;;15.20;99.90;;;;;;5034670;28;20088;-85
2023/05/11 11:32:51;;;;;;;25.00;13.48;;;15.20;99.90;;;;;;5017373;28;20115;-85
2023/05/11 11:35:39;;;;;;;23.27;12.85;;;15.40;99.90;;;;;;5017271;28;20045;-84
2023/05/11 11:38:09;;;;;;;22.45;12.95;;;15.40;99.90;;;;;;5045473;28;20048;-85
2023/05/11 11:40:35;;;;;;;22.38;12.85;;;15.60;99.90;;;;;;5055544;28;20041;-84
2023/05/11 11:43:21;;;;;;;21.65;12.68;;;15.70;99.90;;;;;;5030791;28;20095;-84
2023/05/11 11:45:51;;;;;;;21.73;11.88;;;15.90;99.90;;;;;;5027869;28;20499;-82
2023/05/11 11:48:34;;;;;;;19.73;11.02;;;16.40;99.90;;;;;;5045464;28;20455;-83
2023/05/11 11:51:05;;;;;;;19.10;11.07;;;16.20;99.90;;;;;;5027303;28;20041;-83
2023/05/11 11:53:38;;;;;;;19.83;11.18;;;16.20;99.90;;;;;;5045934;28;20049;-84
2023/05/11 11:56:06;;;;;;;20.37;11.83;;;16.70;99.90;;;;;;5028409;28;20496;-83
2023/05/11 11:58:40;;;;;;;17.75;10.65;;;16.40;99.90;;;;;;5045957;28;20392;-83
2023/05/11 12:01:12;;;;;;;21.23;11.25;;;16.60;99.90;;;;;;5027275;28;20052;-83
2023/05/11 12:03:40;;;;;;;20.23;10.88;;;16.70;99.90;;;;;;5028547;28;20059;-82
2023/05/11 12:06:07;;;;;;;18.60;10.88;;;17.20;99.90;;;;;;5026007;28;20136;-84
2023/05/11 12:08:34;;;;;;;18.73;10.93;;;16.70;99.90;;;;;;5027944;28;20452;-82
2023/05/11 12:11:01;;;;;;;18.35;11.27;;;16.80;99.90;;;;;;5044391;28;20039;-83
2023/05/11 12:13:27;;;;;;;17.23;10.18;;;16.80;99.90;;;;;;5027223;28;20408;-83
2023/05/11 12:16:13;;;;;;;17.73;11.10;;;16.80;99.90;;;;;;5042948;28;20041;-83
2023/05/11 12:22:35;;;;;;;17.13;9.48;;;16.70;99.90;;;;;;5089458;23;20106;-83
2023/05/11 12:25:04;;;;;;;15.98;8.93;;;17.30;99.90;;;;;;5006487;28;20041;-83
2023/05/11 12:27:30;;;;;;;15.15;8.52;;;16.80;99.90;;;;;;5004063;28;20060;-83
2023/05/11 12:29:57;;;;;;;15.15;9.15;;;16.80;99.90;;;;;;5007630;28;20037;-83
2023/05/11 12:32:30;;;;;;;15.65;9.75;;;16.80;99.90;;;;;;5024141;28;20099;-83
2023/05/11 12:35:03;;;;;;;16.73;9.63;;;17.50;99.90;;;;;;5002722;28;20042;-83
2023/05/11 12:37:31;;;;;;;15.07;9.10;;;16.90;99.90;;;;;;5005091;28;20128;-83
2023/05/11 12:39:57;;;;;;;14.38;8.38;;;17.10;99.90;;;;;;5002138;28;20054;-83
2023/05/11 12:42:23;;;;;;;15.07;8.98;;;17.20;99.90;;;;;;5005919;28;20123;-83
2023/05/11 12:44:50;;;;;;;13.75;7.65;;;17.40;99.90;;;;;;5006774;28;20115;-81
2023/05/11 12:47:16;;;;;;;12.65;6.45;;;17.40;99.90;;;;;;5022040;28;20052;-83